Time;durP1;ratioP1;P1;durP2;ratioP2;P2;SDS_P1;SDS_P2;PMS_P1;PMS_P2;Temp;Humidity;BMP_temperature;BMP_pressure;BME280_temperature;BME280_humidity;BME280_pressure;Samples;Min_cycle;Max_cycle;Signal;HPM_P1;HPM_P2
2022/06/22 00:01:49;;;;;;;;;8.00;8.00;;;;;36.98;21.42;100590.44;4900651;29;45414;-76
2022/06/22 00:04:34;;;;;;;;;11.00;9.67;;;;;36.83;21.56;100554.94;4915429;28;45351;-76
2022/06/22 00:07:08;;;;;;;;;8.00;8.00;;;;;36.75;21.40;100565.81;4899736;29;45515;-76
2022/06/22 00:09:39;;;;;;;;;10.00;10.00;;;;;36.78;21.35;100573.84;4900620;29;45495;-76
2022/06/22 00:12:07;;;;;;;;;11.00;11.00;;;;;36.61;21.64;100538.63;4900682;28;45432;-76
2022/06/22 00:14:46;;;;;;;;;9.00;9.00;;;;;36.61;21.73;100538.63;4901039;28;45437;-76
2022/06/22 00:17:21;;;;;;;;;8.00;8.00;;;;;36.70;21.87;100544.16;4900516;28;45488;-76
2022/06/22 00:19:47;;;;;;;;;9.67;8.67;;;;;36.67;21.80;100549.97;4900535;29;46405;-76
2022/06/22 00:22:21;;;;;;;;;8.00;6.33;;;;;36.59;21.23;100548.97;4900585;29;45318;-76
2022/06/22 00:24:59;;;;;;;;;8.33;8.33;;;;;36.54;21.77;100549.38;4900832;29;45414;-76
2022/06/22 00:27:37;;;;;;;;;13.33;9.67;;;;;36.63;21.56;100544.91;4900784;28;45222;-76
2022/06/22 00:30:14;;;;;;;;;11.00;8.67;;;;;36.59;22.05;100530.47;4900319;29;46447;-76
2022/06/22 00:32:52;;;;;;;;;10.00;10.00;;;;;36.56;21.80;100528.88;4900449;29;45552;-75
2022/06/22 00:36:12;;;;;;;;;11.00;11.00;;;;;36.50;22.23;100534.09;4900219;28;45516;-76
2022/06/22 00:38:38;;;;;;;;;12.00;11.00;;;;;36.14;22.51;100514.44;4916600;28;45601;-76
2022/06/22 00:41:16;;;;;;;;;11.00;9.00;;;;;36.22;22.39;100533.94;4917076;28;45488;-76
2022/06/22 00:43:42;;;;;;;;;13.67;13.67;;;;;36.02;22.33;100524.72;4917157;28;45544;-76
2022/06/22 00:46:14;;;;;;;;;8.00;8.00;;;;;36.00;22.51;100535.91;4917065;28;45411;-76
2022/06/22 00:48:40;;;;;;;;;11.00;8.67;;;;;35.87;22.49;100527.03;4917315;28;45466;-76
2022/06/22 00:51:11;;;;;;;;;9.33;8.00;;;;;35.74;22.57;100518.97;4917067;28;45377;-76
2022/06/22 00:53:40;;;;;;;;;13.33;12.00;;;;;35.73;22.49;100547.56;4916995;28;45460;-76
2022/06/22 00:56:20;;;;;;;;;9.00;9.00;;;;;35.73;22.45;100542.91;4901307;28;45452;-76
2022/06/22 00:59:06;;;;;;;;;11.00;10.00;;;;;35.74;22.68;100546.56;4901092;28;45508;-76
2022/06/22 01:01:35;;;;;;;;;13.67;12.00;;;;;35.77;22.72;100534.34;4916787;28;46680;-76
2022/06/22 01:04:27;;;;;;;;;14.33;12.00;;;;;35.49;22.68;100504.63;4916920;28;45561;-76
2022/06/22 01:06:54;;;;;;;;;16.00;11.67;;;;;35.79;22.61;100527.69;4916995;28;45379;-76
2022/06/22 01:09:32;;;;;;;;;15.00;14.33;;;;;35.88;22.27;100548.97;4915665;28;45520;-76
2022/06/22 01:12:18;;;;;;;;;13.67;11.33;;;;;35.80;22.77;100534.94;4910659;28;45523;-76
2022/06/22 01:15:05;;;;;;;;;10.67;10.33;;;;;35.92;22.51;100545.91;4899584;29;45405;-75
2022/06/22 01:17:36;;;;;;;;;10.00;10.00;;;;;36.10;22.49;100552.50;4899983;28;45482;-76
2022/06/22 01:20:23;;;;;;;;;14.33;13.00;;;;;36.12;22.42;100556.00;4914678;28;45549;-76
2022/06/22 01:23:21;;;;;;;;;7.33;7.33;;;;;36.13;22.58;100552.19;4899680;28;45431;-76
2022/06/22 01:25:57;;;;;;;;;11.50;9.00;;;;;36.16;22.26;100545.53;4916389;28;45517;-75
2022/06/22 01:28:24;;;;;;;;;10.00;10.00;;;;;36.03;22.40;100520.94;4916329;28;45534;-76
2022/06/22 01:30:54;;;;;;;;;10.67;10.00;;;;;36.02;22.61;100521.94;4916608;28;45520;-75
2022/06/22 01:33:35;;;;;;;;;12.33;11.67;;;;;36.04;22.49;100528.22;4916277;28;48082;-76
2022/06/22 01:36:06;;;;;;;;;18.33;13.67;;;;;36.00;22.51;100532.28;4916037;28;45525;-76
2022/06/22 01:38:35;;;;;;;;;14.33;13.67;;;;;36.02;22.38;100533.88;4916249;28;45406;-76
2022/06/22 01:41:09;;;;;;;;;10.00;9.00;;;;;36.16;22.27;100549.19;4900259;28;45402;-76
2022/06/22 01:43:42;;;;;;;;;11.33;11.33;;;;;36.10;22.18;100543.34;4915733;28;46086;-76
2022/06/22 01:46:07;;;;;;;;;12.33;10.00;;;;;36.28;22.24;100565.63;4916354;28;45425;-76
2022/06/22 01:49:06;;;;;;;;;11.67;9.67;;;;;36.34;22.10;100565.94;4916105;28;45548;-76
2022/06/22 01:51:38;;;;;;;;;10.33;10.33;;;;;36.43;22.45;100555.94;4916177;28;45565;-76
2022/06/22 01:54:12;;;;;;;;;10.67;10.67;;;;;36.32;22.08;100537.59;4916030;28;45463;-76
2022/06/22 01:56:51;;;;;;;;;10.67;10.33;;;;;36.39;21.79;100548.94;4899981;28;45955;-76
2022/06/22 01:59:33;;;;;;;;;11.00;11.00;;;;;36.37;22.28;100556.50;4915942;28;45373;-76
2022/06/22 02:02:08;;;;;;;;;10.33;10.00;;;;;36.48;22.00;100561.03;4911288;28;45518;-76
2022/06/22 02:04:42;;;;;;;;;12.00;12.00;;;;;36.53;21.77;100562.34;4913474;28;48121;-76
2022/06/22 02:10:29;;;;;;;;;10.33;9.33;;;;;36.55;22.27;100557.53;4899404;29;45271;-76
2022/06/22 02:13:06;;;;;;;;;13.33;11.67;;;;;36.40;21.92;100548.81;4898796;28;45161;-76
2022/06/22 02:15:37;;;;;;;;;13.67;12.33;;;;;36.36;22.33;100569.44;4898815;29;45482;-76
2022/06/22 02:18:05;;;;;;;;;11.67;10.33;;;;;36.20;22.23;100564.47;4913660;28;45391;-75
2022/06/22 02:20:37;;;;;;;;;11.67;11.67;;;;;36.30;22.10;100561.75;4898636;29;45447;-76
2022/06/22 02:23:09;;;;;;;;;11.00;11.00;;;;;36.35;22.11;100551.13;4899030;29;45454;-76
2022/06/22 02:25:42;;;;;;;;;12.33;10.67;;;;;36.32;21.78;100537.59;4898760;29;46273;-76
2022/06/22 02:28:08;;;;;;;;;12.33;12.33;;;;;36.37;22.49;100551.88;4898434;29;45248;-76
2022/06/22 02:30:34;;;;;;;;;14.00;13.33;;;;;36.34;22.28;100554.88;4913251;28;45900;-75
2022/06/22 02:33:00;;;;;;;;;12.67;12.00;;;;;36.22;21.88;100545.84;4898843;28;45342;-76
2022/06/22 02:35:26;;;;;;;;;11.67;11.67;;;;;35.99;21.86;100528.66;4898447;28;45576;-76
2022/06/22 02:38:05;;;;;;;;;13.33;13.33;;;;;36.02;22.42;100533.00;4898716;28;45529;-75
2022/06/22 02:44:29;;;;;;;;;13.33;13.00;;;;;36.18;22.36;100547.13;4898520;28;45485;-76
2022/06/22 02:46:12;;;;;;;;;12.67;12.67;;;;;35.93;22.20;100537.50;4898659;29;45469;-76
2022/06/22 02:48:43;;;;;;;;;12.67;11.33;;;;;35.91;22.67;100539.53;4898609;29;45302;-76
2022/06/22 02:51:25;;;;;;;;;15.67;14.67;;;;;35.76;22.65;100530.72;4898913;29;45432;-76
2022/06/22 02:53:53;;;;;;;;;14.67;13.33;;;;;35.70;22.58;100515.59;4898656;29;45478;-77
2022/06/22 02:56:34;;;;;;;;;12.67;12.67;;;;;35.62;22.73;100509.03;4898072;29;45459;-76
2022/06/22 02:59:00;;;;;;;;;19.33;14.33;;;;;35.44;22.93;100495.03;4898340;28;45455;-76
2022/06/22 03:01:29;;;;;;;;;12.33;11.00;;;;;35.49;22.62;100496.34;4898647;28;45428;-76
2022/06/22 03:03:59;;;;;;;;;16.33;15.00;;;;;35.50;22.88;100508.25;4898782;28;45482;-76
2022/06/22 03:06:29;;;;;;;;;12.00;11.00;;;;;35.42;22.80;100489.66;4898279;28;46304;-76
2022/06/22 03:08:59;;;;;;;;;18.67;15.33;;;;;35.42;22.53;100470.34;4898489;28;45541;-76
2022/06/22 03:11:24;;;;;;;;;14.00;13.00;;;;;35.49;22.59;100470.66;4898365;28;45514;-76
2022/06/22 03:13:57;;;;;;;;;15.67;10.33;;;;;35.47;22.60;100457.00;4898161;28;45537;-76
2022/06/22 03:16:29;;;;;;;;;17.67;14.67;;;;;35.31;22.88;100452.00;4898389;29;46366;-76
2022/06/22 03:18:58;;;;;;;;;16.00;13.33;;;;;35.32;22.90;100481.34;4912832;28;45348;-76
2022/06/22 03:21:23;;;;;;;;;16.00;15.00;;;;;35.40;22.62;100480.63;4898373;29;45387;-76
2022/06/22 03:23:57;;;;;;;;;13.67;13.33;;;;;35.41;22.87;100490.66;4898305;29;45426;-76
2022/06/22 03:26:28;;;;;;;;;13.00;13.00;;;;;35.40;22.74;100475.09;4898094;28;46465;-76
2022/06/22 03:29:11;;;;;;;;;16.00;15.00;;;;;35.37;22.92;100479.03;4898091;29;45389;-76
2022/06/22 03:31:46;;;;;;;;;12.00;11.00;;;;;35.49;23.23;100477.03;4898213;29;45332;-76
2022/06/22 03:34:21;;;;;;;;;13.33;13.33;;;;;35.64;22.99;100474.78;4901115;28;45513;-76
2022/06/22 03:36:53;;;;;;;;;12.33;12.33;;;;;35.70;22.58;100465.94;4901136;29;45411;-76
2022/06/22 03:39:21;;;;;;;;;13.00;13.00;;;;;35.64;22.81;100471.13;4901061;29;45434;-76
2022/06/22 03:41:56;;;;;;;;;14.33;12.00;;;;;35.55;22.85;100490.28;4901135;28;45464;-76
2022/06/22 03:44:34;;;;;;;;;15.00;13.67;;;;;35.57;22.71;100489.25;4901300;29;45332;-76
2022/06/22 03:47:15;;;;;;;;;13.00;12.67;;;;;35.51;23.12;100474.13;4915605;28;47084;-77
2022/06/22 03:49:49;;;;;;;;;18.00;15.00;;;;;35.60;22.62;100478.84;4900957;29;45487;-76
2022/06/22 03:52:26;;;;;;;;;12.33;12.33;;;;;35.44;22.74;100468.31;4900990;29;45356;-77
2022/06/22 03:54:55;;;;;;;;;15.33;13.67;;;;;35.37;22.91;100479.03;4900625;29;45439;-77
2022/06/22 03:57:27;;;;;;;;;15.00;11.67;;;;;35.14;23.41;100456.25;4915660;28;47012;-76
2022/06/22 03:59:55;;;;;;;;;14.00;13.33;;;;;35.06;23.30;100461.56;4900623;28;45427;-77
2022/06/22 04:02:23;;;;;;;;;14.67;13.67;;;;;34.98;23.51;100448.50;4900864;28;45501;-76
2022/06/22 04:04:54;;;;;;;;;15.33;13.67;;;;;35.06;23.08;100450.53;4900837;28;45534;-77
2022/06/22 04:07:21;;;;;;;;;12.67;12.00;;;;;35.07;23.21;100465.22;4900870;29;46482;-76
2022/06/22 04:09:52;;;;;;;;;17.33;14.33;;;;;35.21;23.07;100468.47;4900268;28;45450;-76
2022/06/22 04:12:23;;;;;;;;;13.00;13.00;;;;;35.47;23.07;100489.22;4900926;29;45433;-76
2022/06/22 04:15:23;;;;;;;;;14.00;10.67;;;;;35.69;22.77;100513.84;4900858;29;45588;-76
2022/06/22 04:17:51;;;;;;;;;13.00;12.33;;;;;35.79;22.76;100505.59;4900523;28;45394;-76
2022/06/22 04:20:25;;;;;;;;;11.67;11.67;;;;;35.89;22.79;100517.59;4915105;28;45730;-76
2022/06/22 04:22:55;;;;;;;;;12.67;12.67;;;;;35.92;22.46;100507.25;4900541;28;45435;-77
2022/06/22 04:25:33;;;;;;;;;16.33;11.67;;;;;35.90;22.41;100496.38;4900808;28;45365;-77
2022/06/22 04:28:02;;;;;;;;;13.33;10.00;;;;;35.93;22.15;100512.66;4900669;28;45455;-76
2022/06/22 04:30:35;;;;;;;;;12.00;12.00;;;;;35.82;22.74;100490.69;4900564;29;45413;-76
2022/06/22 04:33:22;;;;;;;;;18.33;16.00;;;;;35.56;22.59;100502.19;4900673;28;45589;-76
2022/06/22 04:36:10;;;;;;;;;11.00;11.00;;;;;35.77;22.61;100496.59;4914935;28;45617;-77
2022/06/22 04:38:41;;;;;;;;;14.67;14.67;;;;;35.68;22.58;100472.59;4899766;28;46455;-77
2022/06/22 04:41:16;;;;;;;;;13.33;12.67;;;;;35.47;22.78;100491.97;4900462;29;45404;-77
2022/06/22 04:43:41;;;;;;;;;15.33;13.67;;;;;35.56;22.55;100485.66;4914800;28;45351;-77
2022/06/22 04:46:13;;;;;;;;;15.33;14.33;;;;;35.72;22.82;100483.22;4900445;28;45384;-77
2022/06/22 04:48:42;;;;;;;;;17.00;14.67;;;;;35.60;22.78;100491.72;4914835;28;47090;-77
2022/06/22 04:51:16;;;;;;;;;13.33;13.33;;;;;35.64;22.73;100494.09;4898931;29;45598;-77
2022/06/22 04:53:48;;;;;;;;;16.00;14.00;;;;;35.81;22.74;100498.09;4899281;29;45341;-77
2022/06/22 04:56:19;;;;;;;;;12.33;12.33;;;;;35.92;22.77;100512.78;4898879;29;45516;-78
2022/06/22 04:58:52;;;;;;;;;12.67;12.67;;;;;35.98;22.79;100510.34;4914399;28;47310;-72
2022/06/22 05:01:28;;;;;;;;;13.00;13.00;;;;;36.00;22.69;100500.00;4899964;29;45360;-72
2022/06/22 05:04:03;;;;;;;;;14.33;12.33;;;;;36.01;22.53;100499.00;4899747;28;45339;-71
2022/06/22 05:07:13;;;;;;;;;13.33;11.67;;;;;36.14;22.10;100486.81;4884537;29;45421;-72
2022/06/22 05:09:47;;;;;;;;;14.33;14.33;;;;;36.09;22.63;100487.25;4897847;29;46511;-72
2022/06/22 05:12:18;;;;;;;;;18.00;15.33;;;;;36.09;22.62;100473.44;4899232;28;45386;-71
2022/06/22 05:14:44;;;;;;;;;17.00;13.33;;;;;36.11;22.34;100479.69;4921846;28;45477;-72
2022/06/22 05:17:24;;;;;;;;;14.00;14.00;;;;;36.03;22.58;100476.78;4925039;28;45766;-71
2022/06/22 05:19:57;;;;;;;;;17.67;14.33;;;;;35.98;23.03;100479.06;4924187;28;45403;-72
2022/06/22 05:22:23;;;;;;;;;15.00;13.67;;;;;35.85;22.48;100468.31;4924944;28;45605;-72
2022/06/22 05:24:58;;;;;;;;;16.33;15.67;;;;;35.81;22.64;100469.59;4924813;28;45625;-72
2022/06/22 05:27:30;;;;;;;;;13.33;13.33;;;;;35.75;22.88;100472.91;4925107;28;45367;-72
2022/06/22 05:30:05;;;;;;;;;17.00;15.33;;;;;35.60;22.71;100467.78;4900612;28;47567;-74
2022/06/22 05:32:35;;;;;;;;;19.33;15.33;;;;;35.50;22.93;100456.72;4927723;28;45474;-74
2022/06/22 05:35:07;;;;;;;;;16.00;14.33;;;;;35.57;22.93;100434.97;4935084;28;45401;-74
2022/06/22 05:37:37;;;;;;;;;14.00;12.67;;;;;35.78;22.72;100450.53;4932266;28;45503;-74
2022/06/22 05:40:03;;;;;;;;;15.67;15.67;;;;;35.89;22.57;100443.06;4920497;28;46269;-74
2022/06/22 05:42:31;;;;;;;;;13.00;12.33;;;;;35.81;22.50;100444.75;4923667;28;45631;-75
2022/06/22 05:44:57;;;;;;;;;16.00;14.67;;;;;35.78;22.72;100458.81;4903490;28;45312;-74
2022/06/22 05:47:32;;;;;;;;;18.00;15.33;;;;;35.72;22.42;100446.47;4888527;28;45336;-74
2022/06/22 05:50:11;;;;;;;;;16.00;16.00;;;;;35.58;22.50;100460.66;4898122;29;46144;-73
2022/06/22 05:52:47;;;;;;;;;19.33;16.33;;;;;35.47;22.66;100457.00;4885648;29;45474;-75
2022/06/22 05:55:23;;;;;;;;;14.00;14.00;;;;;35.37;22.83;100439.53;4891283;29;45323;-74
2022/06/22 05:58:06;;;;;;;;;16.67;10.67;;;;;35.43;22.72;100450.03;4899436;28;45440;-79
2022/06/22 06:00:42;;;;;;;;;15.33;15.00;;;;;35.26;23.07;100448.78;4899261;29;46587;-78
2022/06/22 06:03:18;;;;;;;;;14.33;13.33;;;;;35.31;23.08;100467.69;4891654;28;45491;-75
2022/06/22 06:05:50;;;;;;;;;16.67;13.33;;;;;35.34;22.68;100475.69;4905298;28;45387;-76
2022/06/22 06:08:36;;;;;;;;;14.00;14.00;;;;;35.29;22.92;100481.59;4905639;28;45310;-76
2022/06/22 06:11:04;;;;;;;;;15.33;15.33;;;;;35.33;22.97;100474.81;4910238;28;45433;-75
2022/06/22 06:13:36;;;;;;;;;15.33;14.67;;;;;35.51;22.74;100483.31;4907247;28;46452;-76
2022/06/22 06:16:09;;;;;;;;;14.33;14.33;;;;;35.49;22.45;100477.03;4904750;28;45367;-76
2022/06/22 06:18:40;;;;;;;;;14.33;12.67;;;;;35.45;22.87;100475.56;4919219;28;45697;-76
2022/06/22 06:21:10;;;;;;;;;18.67;17.67;;;;;35.54;22.87;100469.22;4906338;28;45691;-76
2022/06/22 06:23:45;;;;;;;;;16.00;16.00;;;;;35.29;22.93;100469.66;4918408;28;46069;-76
2022/06/22 06:29:26;;;;;;;;;12.67;11.67;;;;;35.33;22.81;100455.50;4893427;29;45474;-75
2022/06/22 06:32:09;;;;;;;;;16.00;16.00;;;;;35.39;23.10;100465.09;4884536;29;45473;-75
2022/06/22 06:34:51;;;;;;;;;18.00;16.00;;;;;35.30;22.84;100461.31;4900633;28;45435;-75
2022/06/22 06:37:44;;;;;;;;;11.00;11.00;;;;;35.30;22.83;100452.09;4906792;28;45359;-75
2022/06/22 06:40:17;;;;;;;;;15.67;14.67;;;;;35.32;22.82;100451.00;4906491;28;45620;-75
2022/06/22 06:42:53;;;;;;;;;16.00;15.67;;;;;35.30;22.96;100465.91;4904422;28;45538;-75
2022/06/22 06:45:23;;;;;;;;;17.67;16.33;;;;;35.17;23.01;100469.75;4904508;28;45449;-75
2022/06/22 06:48:01;;;;;;;;;14.00;13.67;;;;;35.04;22.96;100458.09;4907884;28;45461;-75
2022/06/22 06:50:30;;;;;;;;;22.00;20.00;;;;;35.00;23.25;100479.53;4905578;28;45557;-75
2022/06/22 06:53:23;;;;;;;;;15.67;13.67;;;;;34.92;23.52;100470.22;4905074;28;45447;-75
2022/06/22 06:56:14;;;;;;;;;13.67;13.67;;;;;35.18;23.24;100477.03;4906045;28;45331;-75
2022/06/22 06:58:53;;;;;;;;;16.00;14.33;;;;;35.24;23.07;100472.84;4879294;29;45447;-75
2022/06/22 07:01:26;;;;;;;;;13.67;13.67;;;;;35.33;23.10;100485.84;4879377;29;45399;-75
2022/06/22 07:03:58;;;;;;;;;17.00;14.67;;;;;35.29;23.24;100476.06;4891618;29;46206;-74
2022/06/22 07:06:25;;;;;;;;;14.00;13.67;;;;;35.43;23.09;100496.91;4914750;28;45403;-75
2022/06/22 07:09:11;;;;;;;;;15.00;15.00;;;;;35.54;23.13;100501.44;4903544;28;45430;-75
2022/06/22 07:11:45;;;;;;;;;14.33;14.33;;;;;35.40;22.93;100499.94;4909767;28;45369;-75
2022/06/22 07:14:23;;;;;;;;;17.00;17.00;;;;;35.50;22.96;100492.59;4913345;28;45881;-75
2022/06/22 07:16:53;;;;;;;;;12.00;11.67;;;;;35.73;22.45;100478.56;4907961;28;45347;-75
2022/06/22 07:19:25;;;;;;;;;13.33;12.33;;;;;35.64;22.61;100440.78;4924222;28;45537;-75
2022/06/22 07:21:54;;;;;;;;;16.33;13.33;;;;;36.02;22.54;100484.19;4924974;28;45571;-75
2022/06/22 07:24:30;;;;;;;;;15.67;14.33;;;;;36.12;22.65;100483.31;4914997;28;47265;-75
2022/06/22 07:27:23;;;;;;;;;17.00;15.33;;;;;36.30;22.43;100487.16;4900615;29;45593;-75
2022/06/22 07:30:03;;;;;;;;;16.00;14.00;;;;;36.20;21.99;100478.84;4896318;29;45451;-75
2022/06/22 07:32:34;;;;;;;;;13.00;12.00;;;;;36.15;22.43;100483.06;4896440;29;45628;-75
2022/06/22 07:35:13;;;;;;;;;17.33;15.33;;;;;35.96;22.60;100487.50;4882331;28;45411;-75
2022/06/22 07:37:49;;;;;;;;;16.67;14.67;;;;;35.86;22.31;100490.25;4884690;29;45534;-75
2022/06/22 07:40:21;;;;;;;;;17.33;14.00;;;;;35.98;22.38;100488.25;4900741;28;45494;-75
2022/06/22 07:42:50;;;;;;;;;17.00;16.00;;;;;36.02;22.98;100489.72;4900820;28;45448;-75
2022/06/22 07:45:20;;;;;;;;;17.33;17.33;;;;;36.09;23.03;100475.31;4898356;29;47004;-74
2022/06/22 07:48:10;;;;;;;;;15.33;15.00;;;;;36.02;22.58;100492.47;4900947;29;45312;-75
2022/06/22 07:50:41;;;;;;;;;15.00;13.00;;;;;36.04;22.80;100476.63;4900910;28;45448;-74
2022/06/22 07:53:28;;;;;;;;;18.33;15.33;;;;;36.20;22.13;100489.88;4900595;29;45383;-75
2022/06/22 07:56:34;;;;;;;;;14.33;13.33;;;;;36.21;22.08;100491.59;4900768;29;45510;-75
2022/06/22 07:59:12;;;;;;;;;14.67;13.33;;;;;36.35;22.46;100511.56;4900270;29;45407;-75
2022/06/22 08:01:41;;;;;;;;;13.33;12.67;;;;;36.50;22.56;100510.13;4888247;29;45465;-75
2022/06/22 08:04:22;;;;;;;;;16.67;14.67;;;;;36.65;21.84;100499.47;4896955;29;45559;-75
2022/06/22 08:06:59;;;;;;;;;18.67;12.67;;;;;36.97;22.03;100514.03;4881747;29;45518;-75
2022/06/22 08:09:49;;;;;;;;;13.00;13.00;;;;;37.19;21.54;100519.22;4890489;29;45433;-74
2022/06/22 08:12:32;;;;;;;;;15.00;15.00;;;;;37.33;21.44;100525.31;4881909;29;45283;-75
2022/06/22 08:15:00;;;;;;;;;14.00;13.67;;;;;37.39;21.63;100503.44;4880256;29;45225;-75
2022/06/22 08:17:31;;;;;;;;;16.00;16.00;;;;;37.49;21.58;100522.78;4882294;29;46738;-75
2022/06/22 08:19:57;;;;;;;;;10.33;10.33;;;;;37.33;21.27;100523.44;4906158;28;45656;-74
2022/06/22 08:22:22;;;;;;;;;13.00;13.00;;;;;37.41;21.46;100528.19;4909189;28;45569;-75
2022/06/22 08:24:52;;;;;;;;;17.00;14.67;;;;;37.39;21.22;100519.19;4910234;28;45407;-75
2022/06/22 08:27:20;;;;;;;;;18.00;14.67;;;;;37.35;21.59;100526.91;4920918;28;47384;-75
2022/06/22 08:29:48;;;;;;;;;16.33;15.33;;;;;37.23;21.51;100517.00;4908753;28;45569;-75
2022/06/22 08:32:24;;;;;;;;;16.67;15.33;;;;;37.31;21.32;100541.19;4910396;28;45232;-75
2022/06/22 08:34:58;;;;;;;;;16.00;13.67;;;;;37.28;21.38;100538.75;4910022;28;45503;-75
2022/06/22 08:38:05;;;;;;;;;15.67;15.67;;;;;37.05;22.06;100531.63;4907654;28;46216;-75
2022/06/22 08:40:42;;;;;;;;;16.67;15.00;;;;;37.02;21.76;100517.22;4944222;28;45433;-75
2022/06/22 08:43:29;;;;;;;;;14.00;14.00;;;;;37.24;21.77;100522.41;4916928;28;45693;-75
2022/06/22 08:45:57;;;;;;;;;17.00;16.67;;;;;37.46;22.05;100536.91;4926176;28;45483;-74
2022/06/22 08:48:43;;;;;;;;;17.00;16.67;;;;;37.25;21.19;100531.56;4914153;28;47355;-75
2022/06/22 08:51:46;;;;;;;;;18.67;18.67;;;;;37.11;21.33;100543.13;4914227;28;45942;-75
2022/06/22 08:54:29;;;;;;;;;16.67;16.67;;;;;37.29;21.35;100538.59;4932122;28;45479;-75
2022/06/22 08:57:22;;;;;;;;;18.33;16.67;;;;;37.31;21.30;100524.59;4932169;28;45401;-74
2022/06/22 08:59:59;;;;;;;;;18.67;16.00;;;;;37.32;21.33;100537.41;4915470;28;48131;-75
2022/06/22 09:03:04;;;;;;;;;17.67;17.67;;;;;37.33;21.77;100540.03;4931379;28;45596;-75
2022/06/22 09:06:01;;;;;;;;;18.67;17.00;;;;;37.33;21.48;100536.38;4931796;28;45475;-74
2022/06/22 09:09:15;;;;;;;;;14.33;13.67;;;;;37.19;21.42;100521.97;4913851;28;45718;-74
2022/06/22 09:11:55;;;;;;;;;18.33;16.33;;;;;37.35;22.03;100537.97;4901662;28;46483;-75
2022/06/22 09:14:49;;;;;;;;;14.67;13.33;;;;;37.51;21.97;100534.59;4878950;28;46075;-75
2022/06/22 09:17:37;;;;;;;;;15.00;13.67;;;;;37.80;22.02;100535.50;4840381;29;45586;-75
2022/06/22 09:20:17;;;;;;;;;18.00;15.00;;;;;37.81;21.20;100539.97;4835857;29;45614;-76
2022/06/22 09:22:58;;;;;;;;;10.67;9.00;;;;;38.00;21.32;100536.25;4843781;29;45513;-75
2022/06/22 09:25:35;;;;;;;;;15.00;15.00;;;;;38.06;20.97;100524.53;4830322;29;46594;-74
2022/06/22 09:28:13;;;;;;;;;17.33;14.33;;;;;38.39;21.89;100539.63;4826966;29;45597;-75
2022/06/22 09:30:55;;;;;;;;;14.00;12.00;;;;;38.57;21.44;100545.19;4850847;29;45496;-75
2022/06/22 09:33:38;;;;;;;;;15.00;14.67;;;;;38.74;21.52;100550.94;4838449;29;45555;-75
2022/06/22 09:36:25;;;;;;;;;15.33;13.33;;;;;38.86;20.98;100555.19;4854004;29;45366;-76
2022/06/22 09:39:02;;;;;;;;;16.67;15.67;;;;;38.97;21.22;100551.28;4847054;29;45545;-76
2022/06/22 09:41:35;;;;;;;;;13.67;13.00;;;;;38.99;21.43;100531.69;4855070;29;45481;-76
2022/06/22 09:44:09;;;;;;;;;15.00;13.33;;;;;39.14;21.06;100534.78;4855286;29;46406;-76
2022/06/22 09:47:12;;;;;;;;;17.00;14.00;;;;;39.21;20.98;100542.28;4835567;29;45442;-78
2022/06/22 09:50:28;;;;;;;;;13.00;12.33;;;;;39.26;20.67;100539.91;4894623;29;45481;-77
2022/06/22 09:53:02;;;;;;;;;15.00;14.00;;;;;39.27;20.64;100530.53;4884372;28;45662;-77
2022/06/22 09:59:00;;;;;;;;;15.33;14.00;;;;;39.25;21.04;100537.28;4899132;28;45486;-77
2022/06/22 10:01:46;;;;;;;;;14.33;14.33;;;;;39.16;21.33;100539.16;4898327;28;45603;-77
2022/06/22 10:04:42;;;;;;;;;18.67;15.00;;;;;39.27;21.43;100538.88;4899784;28;45503;-77
2022/06/22 10:07:26;;;;;;;;;18.33;17.00;;;;;39.16;20.89;100535.47;4908049;28;46209;-77
2022/06/22 10:10:14;;;;;;;;;16.33;16.00;;;;;39.03;21.69;100542.31;4898027;28;45444;-77
2022/06/22 10:12:57;;;;;;;;;15.33;14.00;;;;;38.83;21.47;100538.84;4895071;28;45528;-77
2022/06/22 10:15:44;;;;;;;;;14.67;14.67;;;;;39.03;21.56;100544.22;4898563;28;45534;-77
2022/06/22 10:18:46;;;;;;;;;15.67;15.67;;;;;39.32;21.23;100531.97;4890812;28;46266;-77
2022/06/22 10:21:14;;;;;;;;;16.33;16.33;;;;;39.34;21.41;100540.97;4899613;28;45370;-77
2022/06/22 10:24:15;;;;;;;;;14.67;14.67;;;;;39.32;21.77;100538.38;4900158;28;45427;-77
2022/06/22 10:26:53;;;;;;;;;16.00;13.00;;;;;39.44;21.41;100536.19;4910871;28;45772;-77
2022/06/22 10:29:53;;;;;;;;;15.67;15.00;;;;;39.48;21.85;100542.28;4916705;28;47312;-77
2022/06/22 10:32:38;;;;;;;;;21.00;16.33;;;;;39.34;21.51;100539.09;4913844;28;45631;-77
2022/06/22 10:35:22;;;;;;;;;14.33;13.67;;;;;39.44;21.85;100542.59;4894725;28;46479;-77
2022/06/22 10:38:05;;;;;;;;;18.33;18.33;;;;;39.44;21.31;100525.09;4892732;28;46402;-78
2022/06/22 10:47:16;;;;;;;;;15.67;14.67;;;;;39.37;22.21;100510.09;4882922;29;45389;-75
2022/06/22 10:50:08;;;;;;;;;22.33;21.33;;;;;39.45;21.79;100516.59;4897411;29;45571;-75
2022/06/22 10:53:03;;;;;;;;;18.67;16.00;;;;;39.25;22.11;100513.16;4887368;28;46229;-76
2022/06/22 10:55:48;;;;;;;;;16.67;15.33;;;;;39.41;21.90;100503.19;4894293;28;45498;-75
2022/06/22 10:58:38;;;;;;;;;18.00;15.33;;;;;39.43;22.22;100496.44;4897151;28;45567;-75
2022/06/22 11:01:24;;;;;;;;;17.00;16.00;;;;;39.55;22.44;100510.91;4897495;28;45428;-76
2022/06/22 11:04:21;;;;;;;;;19.00;16.00;;;;;39.54;22.26;100503.63;4891866;29;46119;-76
2022/06/22 11:07:05;;;;;;;;;18.00;16.00;;;;;39.53;22.35;100504.66;4897892;28;45991;-76
2022/06/22 11:10:07;;;;;;;;;18.33;16.00;;;;;39.62;22.39;100500.91;4897816;28;45519;-76
2022/06/22 11:12:58;;;;;;;;;15.00;14.67;;;;;39.63;22.57;100513.75;4912725;28;45802;-76
2022/06/22 11:15:41;;;;;;;;;15.00;15.00;;;;;39.66;22.37;100518.09;4902198;28;45630;-76
2022/06/22 11:18:31;;;;;;;;;21.67;19.00;;;;;39.71;22.33;100512.91;4906949;28;45426;-76
2022/06/22 11:21:24;;;;;;;;;19.33;19.00;;;;;39.67;22.13;100521.75;4895286;28;45431;-76
2022/06/22 11:24:13;;;;;;;;;15.67;15.00;;;;;39.72;22.32;100511.00;4913410;28;45361;-76
2022/06/22 11:32:52;;;;;;;;;14.67;14.67;;;;;39.79;22.40;100523.16;4914484;28;45376;-76
2022/06/22 11:35:36;;;;;;;;;14.00;14.00;;;;;39.76;22.75;100512.41;4913709;28;45633;-76
2022/06/22 11:38:22;;;;;;;;;16.00;16.00;;;;;39.90;22.28;100525.69;4910341;28;45442;-76
2022/06/22 11:41:42;;;;;;;;;13.00;13.00;;;;;39.88;22.42;100527.72;4915683;28;45361;-76
2022/06/22 11:44:30;;;;;;;;;16.00;16.00;;;;;39.83;22.38;100530.13;4873385;29;45623;-76
2022/06/22 11:47:00;;;;;;;;;16.67;16.00;;;;;39.84;22.13;100526.31;4877886;29;45615;-76
2022/06/22 11:49:54;;;;;;;;;12.33;12.33;;;;;39.79;22.97;100531.50;4865435;29;45430;-76
2022/06/22 11:52:38;;;;;;;;;15.33;15.33;;;;;39.75;22.61;100511.56;4870626;29;45593;-76
2022/06/22 11:55:09;;;;;;;;;14.67;14.67;;;;;39.86;22.47;100535.38;4870059;29;46001;-76
2022/06/22 11:58:05;;;;;;;;;16.00;16.00;;;;;39.72;22.61;100536.88;4859165;29;45763;-76
2022/06/22 12:00:49;;;;;;;;;16.00;16.00;;;;;39.71;22.71;100537.06;4865022;29;45565;-76
2022/06/22 12:03:26;;;;;;;;;18.33;15.00;;;;;39.72;22.37;100534.09;4874371;29;45457;-76
2022/06/22 12:06:00;;;;;;;;;16.00;16.00;;;;;39.75;22.72;100539.31;4856078;29;45415;-74
2022/06/22 12:08:56;;;;;;;;;17.33;15.67;;;;;39.85;22.88;100528.06;4873792;29;45352;-75
2022/06/22 12:11:52;;;;;;;;;15.00;14.00;;;;;39.89;22.70;100532.25;4856549;29;48015;-75
2022/06/22 12:17:34;;;;;;;;;16.67;16.67;;;;;39.91;22.79;100538.50;4870365;29;45444;-75
2022/06/22 12:20:32;;;;;;;;;21.00;19.33;;;;;39.95;22.61;100550.16;4885507;29;45390;-75
2022/06/22 12:23:00;;;;;;;;;16.00;15.00;;;;;39.94;22.56;100538.16;4904330;28;47171;-75
2022/06/22 12:25:51;;;;;;;;;16.33;16.33;;;;;39.92;22.83;100537.47;4905980;28;45618;-75
2022/06/22 12:28:29;;;;;;;;;19.33;17.67;;;;;39.99;22.98;100536.78;4892141;29;45609;-75